sensor_id;sensor_type;location;lat;lon;timestamp;temperature;humidity
18948;DHT22;9607;51.600;7.558;2023-03-14T00:00:08;11.80;99.90
18948;DHT22;9607;51.600;7.558;2023-03-14T00:02:35;11.80;99.90
18948;DHT22;9607;51.600;7.558;2023-03-14T00:05:02;11.70;99.90
18948;DHT22;9607;51.600;7.558;2023-03-14T00:07:32;11.70;99.90
18948;DHT22;9607;51.600;7.558;2023-03-14T00:10:01;11.70;99.90
18948;DHT22;9607;51.600;7.558;2023-03-14T00:12:30;11.60;99.90
18948;DHT22;9607;51.600;7.558;2023-03-14T00:14:56;11.60;99.90
18948;DHT22;9607;51.600;7.558;2023-03-14T00:17:26;11.70;99.90
18948;DHT22;9607;51.600;7.558;2023-03-14T00:19:53;11.70;99.90
18948;DHT22;9607;51.600;7.558;2023-03-14T00:22:21;11.70;99.90
18948;DHT22;9607;51.600;7.558;2023-03-14T00:24:49;11.70;99.90
18948;DHT22;9607;51.600;7.558;2023-03-14T00:27:16;11.60;99.90
18948;DHT22;9607;51.600;7.558;2023-03-14T00:29:43;11.70;99.90
18948;DHT22;9607;51.600;7.558;2023-03-14T00:32:10;11.60;99.90
18948;DHT22;9607;51.600;7.558;2023-03-14T00:34:38;11.50;99.90
18948;DHT22;9607;51.600;7.558;2023-03-14T00:37:05;11.50;99.90
18948;DHT22;9607;51.600;7.558;2023-03-14T00:39:32;11.40;99.90
18948;DHT22;9607;51.600;7.558;2023-03-14T00:41:59;11.30;99.90
18948;DHT22;9607;51.600;7.558;2023-03-14T00:44:26;11.30;99.90
18948;DHT22;9607;51.600;7.558;2023-03-14T00:46:53;11.20;99.90
18948;DHT22;9607;51.600;7.558;2023-03-14T00:49:19;11.20;99.90
18948;DHT22;9607;51.600;7.558;2023-03-14T00:51:47;11.20;99.90
18948;DHT22;9607;51.600;7.558;2023-03-14T00:54:14;11.20;99.90
18948;DHT22;9607;51.600;7.558;2023-03-14T00:56:41;11.20;99.90
18948;DHT22;9607;51.600;7.558;2023-03-14T00:59:08;11.20;99.90
18948;DHT22;9607;51.600;7.558;2023-03-14T01:01:35;11.30;99.90
18948;DHT22;9607;51.600;7.558;2023-03-14T01:04:02;11.40;99.90
18948;DHT22;9607;51.600;7.558;2023-03-14T01:06:29;11.40;99.90
18948;DHT22;9607;51.600;7.558;2023-03-14T01:08:58;11.50;99.90
18948;DHT22;9607;51.600;7.558;2023-03-14T01:11:27;11.50;99.90
18948;DHT22;9607;51.600;7.558;2023-03-14T01:13:55;11.60;99.90
18948;DHT22;9607;51.600;7.558;2023-03-14T01:16:23;11.60;99.90
18948;DHT22;9607;51.600;7.558;2023-03-14T01:18:51;11.70;99.90
18948;DHT22;9607;51.600;7.558;2023-03-14T01:21:20;11.70;99.90
18948;DHT22;9607;51.600;7.558;2023-03-14T01:23:48;11.80;99.90
18948;DHT22;9607;51.600;7.558;2023-03-14T01:26:19;11.80;99.90
18948;DHT22;9607;51.600;7.558;2023-03-14T01:28:46;11.70;99.90
18948;DHT22;9607;51.600;7.558;2023-03-14T01:31:15;11.20;99.90
18948;DHT22;9607;51.600;7.558;2023-03-14T01:33:42;10.70;99.90
18948;DHT22;9607;51.600;7.558;2023-03-14T01:36:10;10.40;99.90
18948;DHT22;9607;51.600;7.558;2023-03-14T01:38:38;10.00;99.90
18948;DHT22;9607;51.600;7.558;2023-03-14T01:41:06;9.80;99.90
18948;DHT22;9607;51.600;7.558;2023-03-14T01:43:35;9.50;99.90
18948;DHT22;9607;51.600;7.558;2023-03-14T01:46:21;9.40;99.90
18948;DHT22;9607;51.600;7.558;2023-03-14T01:48:59;9.20;99.90
18948;DHT22;9607;51.600;7.558;2023-03-14T01:51:32;9.10;99.90
18948;DHT22;9607;51.600;7.558;2023-03-14T01:54:06;9.10;99.90
18948;DHT22;9607;51.600;7.558;2023-03-14T01:56:36;9.00;99.90
18948;DHT22;9607;51.600;7.558;2023-03-14T01:59:06;9.00;99.90
18948;DHT22;9607;51.600;7.558;2023-03-14T02:01:36;8.90;99.90
18948;DHT22;9607;51.600;7.558;2023-03-14T02:04:05;8.90;99.90
18948;DHT22;9607;51.600;7.558;2023-03-14T02:06:40;8.90;99.90
18948;DHT22;9607;51.600;7.558;2023-03-14T02:09:08;8.90;99.90
18948;DHT22;9607;51.600;7.558;2023-03-14T02:11:35;8.90;99.90
18948;DHT22;9607;51.600;7.558;2023-03-14T02:14:05;8.90;99.90
18948;DHT22;9607;51.600;7.558;2023-03-14T02:16:32;8.90;99.90
18948;DHT22;9607;51.600;7.558;2023-03-14T02:18:59;8.90;99.90
18948;DHT22;9607;51.600;7.558;2023-03-14T02:21:34;8.90;99.90
18948;DHT22;9607;51.600;7.558;2023-03-14T02:24:11;8.80;99.90
18948;DHT22;9607;51.600;7.558;2023-03-14T02:27:00;8.80;99.90
18948;DHT22;9607;51.600;7.558;2023-03-14T02:29:28;8.80;99.90
18948;DHT22;9607;51.600;7.558;2023-03-14T02:31:55;8.80;99.90
18948;DHT22;9607;51.600;7.558;2023-03-14T02:34:22;8.80;99.90
18948;DHT22;9607;51.600;7.558;2023-03-14T02:36:49;8.80;99.90
18948;DHT22;9607;51.600;7.558;2023-03-14T02:39:22;8.80;99.90
18948;DHT22;9607;51.600;7.558;2023-03-14T02:41:51;8.90;99.90
18948;DHT22;9607;51.600;7.558;2023-03-14T02:44:19;8.90;99.90
18948;DHT22;9607;51.600;7.558;2023-03-14T02:46:46;8.90;99.90
18948;DHT22;9607;51.600;7.558;2023-03-14T02:49:14;8.90;99.90
18948;DHT22;9607;51.600;7.558;2023-03-14T02:51:43;9.00;99.90
18948;DHT22;9607;51.600;7.558;2023-03-14T02:54:11;9.00;99.90
18948;DHT22;9607;51.600;7.558;2023-03-14T02:56:38;9.00;99.90
18948;DHT22;9607;51.600;7.558;2023-03-14T02:59:05;9.00;99.90
18948;DHT22;9607;51.600;7.558;2023-03-14T03:01:34;9.00;99.90
18948;DHT22;9607;51.600;7.558;2023-03-14T03:04:01;9.10;99.90
18948;DHT22;9607;51.600;7.558;2023-03-14T03:06:28;9.10;99.90
18948;DHT22;9607;51.600;7.558;2023-03-14T03:08:55;9.20;99.90
18948;DHT22;9607;51.600;7.558;2023-03-14T03:11:22;9.20;99.90
18948;DHT22;9607;51.600;7.558;2023-03-14T03:13:49;9.20;99.90
18948;DHT22;9607;51.600;7.558;2023-03-14T03:16:16;9.30;99.90
18948;DHT22;9607;51.600;7.558;2023-03-14T03:18:44;9.30;99.90
18948;DHT22;9607;51.600;7.558;2023-03-14T03:21:11;9.40;99.90
18948;DHT22;9607;51.600;7.558;2023-03-14T03:23:37;9.40;99.90
18948;DHT22;9607;51.600;7.558;2023-03-14T03:26:05;9.40;99.90
18948;DHT22;9607;51.600;7.558;2023-03-14T03:28:32;9.40;99.90
18948;DHT22;9607;51.600;7.558;2023-03-14T03:30:58;9.40;99.90
18948;DHT22;9607;51.600;7.558;2023-03-14T03:33:25;9.50;99.90
18948;DHT22;9607;51.600;7.558;2023-03-14T03:35:53;9.40;99.90
18948;DHT22;9607;51.600;7.558;2023-03-14T03:38:20;9.40;99.90
18948;DHT22;9607;51.600;7.558;2023-03-14T03:40:47;9.30;99.90
18948;DHT22;9607;51.600;7.558;2023-03-14T03:43:14;9.30;99.90
18948;DHT22;9607;51.600;7.558;2023-03-14T03:45:41;9.20;99.90
18948;DHT22;9607;51.600;7.558;2023-03-14T03:48:07;9.20;99.90
18948;DHT22;9607;51.600;7.558;2023-03-14T03:50:34;9.20;99.90
18948;DHT22;9607;51.600;7.558;2023-03-14T03:53:02;9.20;99.90
18948;DHT22;9607;51.600;7.558;2023-03-14T03:55:30;9.20;99.90
18948;DHT22;9607;51.600;7.558;2023-03-14T03:57:57;9.20;99.90
18948;DHT22;9607;51.600;7.558;2023-03-14T04:00:23;9.30;99.90
18948;DHT22;9607;51.600;7.558;2023-03-14T04:02:50;9.30;99.90
18948;DHT22;9607;51.600;7.558;2023-03-14T04:05:17;9.30;99.90
18948;DHT22;9607;51.600;7.558;2023-03-14T04:07:44;9.40;99.90
18948;DHT22;9607;51.600;7.558;2023-03-14T04:10:12;9.30;99.90
18948;DHT22;9607;51.600;7.558;2023-03-14T04:12:39;9.30;99.90
18948;DHT22;9607;51.600;7.558;2023-03-14T04:15:07;9.40;99.90
18948;DHT22;9607;51.600;7.558;2023-03-14T04:17:34;9.30;99.90
18948;DHT22;9607;51.600;7.558;2023-03-14T04:20:01;9.30;99.90
18948;DHT22;9607;51.600;7.558;2023-03-14T04:22:28;9.40;99.90
18948;DHT22;9607;51.600;7.558;2023-03-14T04:24:56;9.40;99.90
18948;DHT22;9607;51.600;7.558;2023-03-14T04:27:24;9.40;99.90
18948;DHT22;9607;51.600;7.558;2023-03-14T04:29:51;9.40;99.90
18948;DHT22;9607;51.600;7.558;2023-03-14T04:32:17;9.40;99.90
18948;DHT22;9607;51.600;7.558;2023-03-14T04:34:44;9.40;99.90
18948;DHT22;9607;51.600;7.558;2023-03-14T04:37:12;9.40;99.90
18948;DHT22;9607;51.600;7.558;2023-03-14T04:39:40;9.30;99.90
18948;DHT22;9607;51.600;7.558;2023-03-14T04:42:07;9.40;99.90
18948;DHT22;9607;51.600;7.558;2023-03-14T04:44:35;9.40;99.90
18948;DHT22;9607;51.600;7.558;2023-03-14T04:47:02;9.40;99.90
18948;DHT22;9607;51.600;7.558;2023-03-14T04:49:29;9.40;99.90
18948;DHT22;9607;51.600;7.558;2023-03-14T04:51:56;9.40;99.90
18948;DHT22;9607;51.600;7.558;2023-03-14T04:54:23;9.40;99.90
18948;DHT22;9607;51.600;7.558;2023-03-14T04:56:50;9.30;99.90
18948;DHT22;9607;51.600;7.558;2023-03-14T04:59:17;9.30;99.90
18948;DHT22;9607;51.600;7.558;2023-03-14T05:01:46;9.20;99.90
18948;DHT22;9607;51.600;7.558;2023-03-14T05:04:14;9.10;99.90
18948;DHT22;9607;51.600;7.558;2023-03-14T05:06:40;9.00;99.90
18948;DHT22;9607;51.600;7.558;2023-03-14T05:09:08;8.90;99.90
18948;DHT22;9607;51.600;7.558;2023-03-14T05:11:35;8.80;99.90
18948;DHT22;9607;51.600;7.558;2023-03-14T05:14:02;8.70;99.90
18948;DHT22;9607;51.600;7.558;2023-03-14T05:16:28;8.70;99.90
18948;DHT22;9607;51.600;7.558;2023-03-14T05:18:57;8.60;99.90
18948;DHT22;9607;51.600;7.558;2023-03-14T05:21:23;8.60;99.90
18948;DHT22;9607;51.600;7.558;2023-03-14T05:23:50;8.60;99.90
18948;DHT22;9607;51.600;7.558;2023-03-14T05:26:18;8.50;99.90
18948;DHT22;9607;51.600;7.558;2023-03-14T05:28:44;8.40;99.90
18948;DHT22;9607;51.600;7.558;2023-03-14T05:31:12;8.40;99.90
18948;DHT22;9607;51.600;7.558;2023-03-14T05:33:39;8.40;99.90
18948;DHT22;9607;51.600;7.558;2023-03-14T05:36:10;8.30;99.90
18948;DHT22;9607;51.600;7.558;2023-03-14T05:38:37;8.30;99.90
18948;DHT22;9607;51.600;7.558;2023-03-14T05:41:04;8.30;99.90
18948;DHT22;9607;51.600;7.558;2023-03-14T05:43:32;8.20;99.90
18948;DHT22;9607;51.600;7.558;2023-03-14T05:45:58;8.20;99.90
18948;DHT22;9607;51.600;7.558;2023-03-14T05:48:25;8.20;99.90
18948;DHT22;9607;51.600;7.558;2023-03-14T05:50:54;8.20;99.90
18948;DHT22;9607;51.600;7.558;2023-03-14T05:53:23;8.20;99.90
18948;DHT22;9607;51.600;7.558;2023-03-14T05:55:51;8.20;99.90
18948;DHT22;9607;51.600;7.558;2023-03-14T05:58:19;8.10;99.90
18948;DHT22;9607;51.600;7.558;2023-03-14T06:00:46;8.10;99.90
18948;DHT22;9607;51.600;7.558;2023-03-14T06:03:13;8.10;99.90
18948;DHT22;9607;51.600;7.558;2023-03-14T06:05:40;8.10;99.90
18948;DHT22;9607;51.600;7.558;2023-03-14T06:08:07;8.20;99.90
18948;DHT22;9607;51.600;7.558;2023-03-14T06:10:36;8.20;99.90
18948;DHT22;9607;51.600;7.558;2023-03-14T06:13:03;8.20;99.90
18948;DHT22;9607;51.600;7.558;2023-03-14T06:15:30;8.30;99.90
18948;DHT22;9607;51.600;7.558;2023-03-14T06:17:58;8.30;99.90
18948;DHT22;9607;51.600;7.558;2023-03-14T06:20:25;8.30;99.90
18948;DHT22;9607;51.600;7.558;2023-03-14T06:22:52;8.30;99.90
18948;DHT22;9607;51.600;7.558;2023-03-14T06:25:20;8.40;99.90
18948;DHT22;9607;51.600;7.558;2023-03-14T06:27:48;8.40;99.90
18948;DHT22;9607;51.600;7.558;2023-03-14T06:30:15;8.40;99.90
18948;DHT22;9607;51.600;7.558;2023-03-14T06:32:42;8.50;99.90
18948;DHT22;9607;51.600;7.558;2023-03-14T06:35:09;8.60;99.90
18948;DHT22;9607;51.600;7.558;2023-03-14T06:37:36;8.60;99.90
18948;DHT22;9607;51.600;7.558;2023-03-14T06:40:03;8.60;99.90
18948;DHT22;9607;51.600;7.558;2023-03-14T06:42:32;8.70;99.90
18948;DHT22;9607;51.600;7.558;2023-03-14T06:45:00;8.80;99.90
18948;DHT22;9607;51.600;7.558;2023-03-14T06:47:28;8.80;99.90
18948;DHT22;9607;51.600;7.558;2023-03-14T06:49:55;8.90;99.90
18948;DHT22;9607;51.600;7.558;2023-03-14T06:52:22;8.90;99.90
18948;DHT22;9607;51.600;7.558;2023-03-14T06:54:49;9.00;99.90
18948;DHT22;9607;51.600;7.558;2023-03-14T06:57:16;9.00;99.90
18948;DHT22;9607;51.600;7.558;2023-03-14T06:59:42;9.10;99.90
18948;DHT22;9607;51.600;7.558;2023-03-14T07:02:12;9.10;99.90
18948;DHT22;9607;51.600;7.558;2023-03-14T07:04:39;9.20;99.90
18948;DHT22;9607;51.600;7.558;2023-03-14T07:07:06;9.30;99.90
18948;DHT22;9607;51.600;7.558;2023-03-14T07:09:34;9.40;99.90
18948;DHT22;9607;51.600;7.558;2023-03-14T07:12:01;9.50;99.90
18948;DHT22;9607;51.600;7.558;2023-03-14T07:14:29;9.50;99.90
18948;DHT22;9607;51.600;7.558;2023-03-14T07:16:56;9.50;99.90
18948;DHT22;9607;51.600;7.558;2023-03-14T07:19:25;9.60;99.90
18948;DHT22;9607;51.600;7.558;2023-03-14T07:21:51;9.60;99.90
18948;DHT22;9607;51.600;7.558;2023-03-14T07:24:19;9.60;99.90
18948;DHT22;9607;51.600;7.558;2023-03-14T07:26:46;9.70;99.90
18948;DHT22;9607;51.600;7.558;2023-03-14T07:29:13;9.70;99.90
18948;DHT22;9607;51.600;7.558;2023-03-14T07:31:40;9.70;99.90
18948;DHT22;9607;51.600;7.558;2023-03-14T07:34:06;9.70;99.90
18948;DHT22;9607;51.600;7.558;2023-03-14T07:36:35;9.80;99.90
18948;DHT22;9607;51.600;7.558;2023-03-14T07:39:02;9.80;99.90
18948;DHT22;9607;51.600;7.558;2023-03-14T07:41:29;9.90;99.90
18948;DHT22;9607;51.600;7.558;2023-03-14T07:43:56;10.00;99.90
18948;DHT22;9607;51.600;7.558;2023-03-14T07:46:23;10.00;99.90
18948;DHT22;9607;51.600;7.558;2023-03-14T07:48:50;10.00;99.90
18948;DHT22;9607;51.600;7.558;2023-03-14T07:51:16;10.20;99.90
18948;DHT22;9607;51.600;7.558;2023-03-14T07:53:45;10.20;99.90
18948;DHT22;9607;51.600;7.558;2023-03-14T07:56:12;10.30;99.90
18948;DHT22;9607;51.600;7.558;2023-03-14T07:58:39;10.40;99.90
18948;DHT22;9607;51.600;7.558;2023-03-14T08:01:06;10.50;99.90
18948;DHT22;9607;51.600;7.558;2023-03-14T08:03:33;10.50;99.90
18948;DHT22;9607;51.600;7.558;2023-03-14T08:06:00;10.60;99.90
18948;DHT22;9607;51.600;7.558;2023-03-14T08:08:26;10.70;99.90
18948;DHT22;9607;51.600;7.558;2023-03-14T08:10:55;10.80;99.90
18948;DHT22;9607;51.600;7.558;2023-03-14T08:13:21;10.90;99.90
18948;DHT22;9607;51.600;7.558;2023-03-14T08:15:51;10.90;99.90
18948;DHT22;9607;51.600;7.558;2023-03-14T08:18:17;10.90;99.90
18948;DHT22;9607;51.600;7.558;2023-03-14T08:20:45;10.80;99.90
18948;DHT22;9607;51.600;7.558;2023-03-14T08:23:12;10.80;99.90
18948;DHT22;9607;51.600;7.558;2023-03-14T08:25:38;10.80;99.90
18948;DHT22;9607;51.600;7.558;2023-03-14T08:28:07;10.80;99.90
18948;DHT22;9607;51.600;7.558;2023-03-14T08:30:34;10.90;99.90
18948;DHT22;9607;51.600;7.558;2023-03-14T08:33:00;10.80;99.90
18948;DHT22;9607;51.600;7.558;2023-03-14T08:35:28;10.90;99.90
18948;DHT22;9607;51.600;7.558;2023-03-14T08:37:54;10.90;99.90
18948;DHT22;9607;51.600;7.558;2023-03-14T08:40:22;11.00;99.90
18948;DHT22;9607;51.600;7.558;2023-03-14T08:42:49;11.00;99.90
18948;DHT22;9607;51.600;7.558;2023-03-14T08:45:17;11.10;99.90
18948;DHT22;9607;51.600;7.558;2023-03-14T08:47:44;11.20;99.90
18948;DHT22;9607;51.600;7.558;2023-03-14T08:50:11;11.20;99.90
18948;DHT22;9607;51.600;7.558;2023-03-14T08:52:38;11.30;99.90
18948;DHT22;9607;51.600;7.558;2023-03-14T08:55:08;11.20;99.90
18948;DHT22;9607;51.600;7.558;2023-03-14T08:57:35;11.10;99.90
18948;DHT22;9607;51.600;7.558;2023-03-14T09:00:03;11.10;99.90
18948;DHT22;9607;51.600;7.558;2023-03-14T09:02:35;11.00;99.90
18948;DHT22;9607;51.600;7.558;2023-03-14T09:05:03;10.90;99.90
18948;DHT22;9607;51.600;7.558;2023-03-14T09:07:29;10.90;99.90
18948;DHT22;9607;51.600;7.558;2023-03-14T09:09:56;10.90;99.90
18948;DHT22;9607;51.600;7.558;2023-03-14T09:12:23;10.80;99.90
18948;DHT22;9607;51.600;7.558;2023-03-14T09:14:50;10.80;99.90
18948;DHT22;9607;51.600;7.558;2023-03-14T09:17:17;11.00;99.90
18948;DHT22;9607;51.600;7.558;2023-03-14T09:19:45;11.10;99.90
18948;DHT22;9607;51.600;7.558;2023-03-14T09:22:12;11.40;99.90
18948;DHT22;9607;51.600;7.558;2023-03-14T09:24:40;11.60;99.90
18948;DHT22;9607;51.600;7.558;2023-03-14T09:27:06;11.80;99.90
18948;DHT22;9607;51.600;7.558;2023-03-14T09:29:33;11.90;99.90
18948;DHT22;9607;51.600;7.558;2023-03-14T09:32:00;12.00;99.90
18948;DHT22;9607;51.600;7.558;2023-03-14T09:34:27;12.00;99.90
18948;DHT22;9607;51.600;7.558;2023-03-14T09:36:55;12.10;99.90
18948;DHT22;9607;51.600;7.558;2023-03-14T09:39:22;12.00;99.90
18948;DHT22;9607;51.600;7.558;2023-03-14T09:41:51;11.90;99.90
18948;DHT22;9607;51.600;7.558;2023-03-14T09:44:22;11.60;99.90
18948;DHT22;9607;51.600;7.558;2023-03-14T09:46:52;11.40;99.90
18948;DHT22;9607;51.600;7.558;2023-03-14T09:49:25;11.20;99.90
18948;DHT22;9607;51.600;7.558;2023-03-14T09:51:57;10.90;99.90
18948;DHT22;9607;51.600;7.558;2023-03-14T09:54:34;10.70;99.90
18948;DHT22;9607;51.600;7.558;2023-03-14T09:57:03;10.50;99.90
18948;DHT22;9607;51.600;7.558;2023-03-14T09:59:30;10.10;99.90
18948;DHT22;9607;51.600;7.558;2023-03-14T10:02:00;9.70;99.90
18948;DHT22;9607;51.600;7.558;2023-03-14T10:04:28;9.40;99.90
18948;DHT22;9607;51.600;7.558;2023-03-14T10:07:00;9.20;99.90
18948;DHT22;9607;51.600;7.558;2023-03-14T10:09:27;9.00;99.90
18948;DHT22;9607;51.600;7.558;2023-03-14T10:11:56;8.90;99.90
18948;DHT22;9607;51.600;7.558;2023-03-14T10:14:31;8.80;99.90
18948;DHT22;9607;51.600;7.558;2023-03-14T10:17:05;8.80;99.90
18948;DHT22;9607;51.600;7.558;2023-03-14T10:19:33;8.70;99.90
18948;DHT22;9607;51.600;7.558;2023-03-14T10:22:03;8.70;99.90
18948;DHT22;9607;51.600;7.558;2023-03-14T10:24:32;8.70;99.90
18948;DHT22;9607;51.600;7.558;2023-03-14T10:27:00;8.70;99.90
18948;DHT22;9607;51.600;7.558;2023-03-14T10:29:29;8.60;99.90
18948;DHT22;9607;51.600;7.558;2023-03-14T10:31:59;8.50;99.90
18948;DHT22;9607;51.600;7.558;2023-03-14T10:34:29;8.40;99.90
18948;DHT22;9607;51.600;7.558;2023-03-14T10:36:58;8.40;99.90
18948;DHT22;9607;51.600;7.558;2023-03-14T10:39:36;8.30;99.90
18948;DHT22;9607;51.600;7.558;2023-03-14T10:42:13;8.20;99.90
18948;DHT22;9607;51.600;7.558;2023-03-14T10:44:42;8.10;99.90
18948;DHT22;9607;51.600;7.558;2023-03-14T10:47:17;8.10;99.90
18948;DHT22;9607;51.600;7.558;2023-03-14T10:49:45;7.90;99.90
18948;DHT22;9607;51.600;7.558;2023-03-14T10:52:20;7.80;99.90
18948;DHT22;9607;51.600;7.558;2023-03-14T10:54:55;7.70;99.90
18948;DHT22;9607;51.600;7.558;2023-03-14T10:57:23;7.60;99.90
18948;DHT22;9607;51.600;7.558;2023-03-14T10:59:51;7.60;99.90
18948;DHT22;9607;51.600;7.558;2023-03-14T11:02:43;7.60;99.90
18948;DHT22;9607;51.600;7.558;2023-03-14T11:05:22;7.60;99.90
18948;DHT22;9607;51.600;7.558;2023-03-14T11:07:53;7.50;99.90
18948;DHT22;9607;51.600;7.558;2023-03-14T11:10:29;7.50;99.90
18948;DHT22;9607;51.600;7.558;2023-03-14T11:13:08;7.40;99.90
18948;DHT22;9607;51.600;7.558;2023-03-14T11:15:41;7.30;99.90
18948;DHT22;9607;51.600;7.558;2023-03-14T11:21:07;7.00;99.90
18948;DHT22;9607;51.600;7.558;2023-03-14T11:23:42;6.80;99.90
18948;DHT22;9607;51.600;7.558;2023-03-14T11:26:25;6.60;99.90
18948;DHT22;9607;51.600;7.558;2023-03-14T11:28:57;6.50;99.90
18948;DHT22;9607;51.600;7.558;2023-03-14T11:31:27;6.40;99.90
18948;DHT22;9607;51.600;7.558;2023-03-14T11:33:57;6.40;99.90
18948;DHT22;9607;51.600;7.558;2023-03-14T11:36:31;6.40;99.90
18948;DHT22;9607;51.600;7.558;2023-03-14T11:38:59;6.30;99.90
18948;DHT22;9607;51.600;7.558;2023-03-14T11:41:31;6.40;99.90
18948;DHT22;9607;51.600;7.558;2023-03-14T11:44:02;6.50;99.90
18948;DHT22;9607;51.600;7.558;2023-03-14T11:46:34;6.50;99.90
18948;DHT22;9607;51.600;7.558;2023-03-14T11:49:07;6.50;99.90
18948;DHT22;9607;51.600;7.558;2023-03-14T11:51:39;6.50;99.90
18948;DHT22;9607;51.600;7.558;2023-03-14T11:54:14;6.40;99.90
18948;DHT22;9607;51.600;7.558;2023-03-14T11:56:47;6.30;99.90
18948;DHT22;9607;51.600;7.558;2023-03-14T11:59:19;6.30;99.90
18948;DHT22;9607;51.600;7.558;2023-03-14T12:01:53;6.30;99.90
18948;DHT22;9607;51.600;7.558;2023-03-14T12:04:40;6.30;99.90
18948;DHT22;9607;51.600;7.558;2023-03-14T12:07:14;6.50;99.90
18948;DHT22;9607;51.600;7.558;2023-03-14T12:09:45;6.60;99.90
18948;DHT22;9607;51.600;7.558;2023-03-14T12:12:17;6.80;99.90
18948;DHT22;9607;51.600;7.558;2023-03-14T12:14:51;7.00;99.90
18948;DHT22;9607;51.600;7.558;2023-03-14T12:17:20;7.10;99.90
18948;DHT22;9607;51.600;7.558;2023-03-14T12:19:48;7.20;99.90
18948;DHT22;9607;51.600;7.558;2023-03-14T12:22:27;7.30;99.90
18948;DHT22;9607;51.600;7.558;2023-03-14T12:25:05;7.40;99.90
18948;DHT22;9607;51.600;7.558;2023-03-14T12:30:38;7.50;99.90
18948;DHT22;9607;51.600;7.558;2023-03-14T12:33:32;7.60;99.90
18948;DHT22;9607;51.600;7.558;2023-03-14T12:36:04;7.60;99.90
18948;DHT22;9607;51.600;7.558;2023-03-14T12:38:55;7.60;99.90
18948;DHT22;9607;51.600;7.558;2023-03-14T12:41:26;7.60;99.90
18948;DHT22;9607;51.600;7.558;2023-03-14T12:43:54;7.60;99.90
18948;DHT22;9607;51.600;7.558;2023-03-14T12:46:24;7.70;99.90
18948;DHT22;9607;51.600;7.558;2023-03-14T12:48:56;7.70;99.90
18948;DHT22;9607;51.600;7.558;2023-03-14T12:51:29;7.60;99.90
18948;DHT22;9607;51.600;7.558;2023-03-14T12:54:13;7.70;99.90
18948;DHT22;9607;51.600;7.558;2023-03-14T12:56:59;7.80;99.90
18948;DHT22;9607;51.600;7.558;2023-03-14T12:59:32;7.80;99.90
18948;DHT22;9607;51.600;7.558;2023-03-14T13:02:13;7.60;99.90
18948;DHT22;9607;51.600;7.558;2023-03-14T13:04:44;7.40;99.90
18948;DHT22;9607;51.600;7.558;2023-03-14T13:07:13;7.20;99.90
18948;DHT22;9607;51.600;7.558;2023-03-14T13:09:59;6.80;99.90
18948;DHT22;9607;51.600;7.558;2023-03-14T13:12:37;6.30;99.90
18948;DHT22;9607;51.600;7.558;2023-03-14T13:15:15;5.90;99.90
18948;DHT22;9607;51.600;7.558;2023-03-14T13:17:46;5.70;99.90
18948;DHT22;9607;51.600;7.558;2023-03-14T13:20:18;5.60;99.90
18948;DHT22;9607;51.600;7.558;2023-03-14T13:22:47;5.60;99.90
18948;DHT22;9607;51.600;7.558;2023-03-14T13:25:14;5.60;99.90
18948;DHT22;9607;51.600;7.558;2023-03-14T13:27:42;5.60;99.90
18948;DHT22;9607;51.600;7.558;2023-03-14T13:30:21;5.80;99.90
18948;DHT22;9607;51.600;7.558;2023-03-14T13:32:51;6.00;99.90
18948;DHT22;9607;51.600;7.558;2023-03-14T13:35:21;6.30;99.90
18948;DHT22;9607;51.600;7.558;2023-03-14T13:37:53;6.40;99.90
18948;DHT22;9607;51.600;7.558;2023-03-14T13:40:24;6.40;99.90
18948;DHT22;9607;51.600;7.558;2023-03-14T13:43:04;6.50;99.90
18948;DHT22;9607;51.600;7.558;2023-03-14T13:45:41;6.50;99.90
18948;DHT22;9607;51.600;7.558;2023-03-14T13:48:11;6.40;99.90
18948;DHT22;9607;51.600;7.558;2023-03-14T13:50:45;6.30;99.90
18948;DHT22;9607;51.600;7.558;2023-03-14T13:53:12;6.30;99.90
18948;DHT22;9607;51.600;7.558;2023-03-14T13:55:39;6.30;99.90
18948;DHT22;9607;51.600;7.558;2023-03-14T13:58:13;6.40;99.90
18948;DHT22;9607;51.600;7.558;2023-03-14T14:00:57;6.40;99.90
18948;DHT22;9607;51.600;7.558;2023-03-14T14:03:26;6.40;99.90
18948;DHT22;9607;51.600;7.558;2023-03-14T14:05:56;6.60;99.90
18948;DHT22;9607;51.600;7.558;2023-03-14T14:08:23;6.80;99.90
18948;DHT22;9607;51.600;7.558;2023-03-14T14:10:54;7.00;99.90
18948;DHT22;9607;51.600;7.558;2023-03-14T14:13:23;7.20;99.90
18948;DHT22;9607;51.600;7.558;2023-03-14T14:15:53;7.50;99.90
18948;DHT22;9607;51.600;7.558;2023-03-14T14:18:23;7.60;99.90
18948;DHT22;9607;51.600;7.558;2023-03-14T14:20:54;7.60;99.90
18948;DHT22;9607;51.600;7.558;2023-03-14T14:23:24;7.50;99.90
18948;DHT22;9607;51.600;7.558;2023-03-14T14:25:52;7.20;99.90
18948;DHT22;9607;51.600;7.558;2023-03-14T14:28:25;7.00;99.90
18948;DHT22;9607;51.600;7.558;2023-03-14T14:31:01;6.90;99.90
18948;DHT22;9607;51.600;7.558;2023-03-14T14:33:28;6.90;99.90
18948;DHT22;9607;51.600;7.558;2023-03-14T14:35:57;6.90;99.90
18948;DHT22;9607;51.600;7.558;2023-03-14T14:38:26;6.90;99.90
18948;DHT22;9607;51.600;7.558;2023-03-14T14:40:58;7.00;99.90
18948;DHT22;9607;51.600;7.558;2023-03-14T14:43:30;7.30;99.90
18948;DHT22;9607;51.600;7.558;2023-03-14T14:46:00;7.80;99.90
18948;DHT22;9607;51.600;7.558;2023-03-14T14:48:29;8.00;99.90
18948;DHT22;9607;51.600;7.558;2023-03-14T14:50:59;7.90;99.90
18948;DHT22;9607;51.600;7.558;2023-03-14T14:53:30;7.90;99.90
18948;DHT22;9607;51.600;7.558;2023-03-14T14:55:59;8.10;99.90
18948;DHT22;9607;51.600;7.558;2023-03-14T14:58:28;8.40;99.90
18948;DHT22;9607;51.600;7.558;2023-03-14T15:01:02;8.90;99.90
18948;DHT22;9607;51.600;7.558;2023-03-14T15:03:31;9.10;99.90
18948;DHT22;9607;51.600;7.558;2023-03-14T15:06:01;9.20;99.90
18948;DHT22;9607;51.600;7.558;2023-03-14T15:08:28;9.30;99.90
18948;DHT22;9607;51.600;7.558;2023-03-14T15:10:55;9.60;99.90
18948;DHT22;9607;51.600;7.558;2023-03-14T15:13:23;9.50;99.90
18948;DHT22;9607;51.600;7.558;2023-03-14T15:15:50;9.50;99.90
18948;DHT22;9607;51.600;7.558;2023-03-14T15:18:22;9.50;99.90
18948;DHT22;9607;51.600;7.558;2023-03-14T15:20:49;9.60;99.90
18948;DHT22;9607;51.600;7.558;2023-03-14T15:23:21;9.80;99.90
18948;DHT22;9607;51.600;7.558;2023-03-14T15:25:48;10.20;99.90
18948;DHT22;9607;51.600;7.558;2023-03-14T15:28:17;10.20;99.90
18948;DHT22;9607;51.600;7.558;2023-03-14T15:30:46;10.10;99.90
18948;DHT22;9607;51.600;7.558;2023-03-14T15:33:13;10.50;99.90
18948;DHT22;9607;51.600;7.558;2023-03-14T15:35:40;11.10;99.90
18948;DHT22;9607;51.600;7.558;2023-03-14T15:38:10;11.40;99.90
18948;DHT22;9607;51.600;7.558;2023-03-14T15:40:39;10.80;99.90
18948;DHT22;9607;51.600;7.558;2023-03-14T15:43:06;10.50;99.90
18948;DHT22;9607;51.600;7.558;2023-03-14T15:45:34;9.80;99.90
18948;DHT22;9607;51.600;7.558;2023-03-14T15:48:03;9.10;99.90
18948;DHT22;9607;51.600;7.558;2023-03-14T15:50:30;8.60;99.90
18948;DHT22;9607;51.600;7.558;2023-03-14T15:52:57;8.70;99.90
18948;DHT22;9607;51.600;7.558;2023-03-14T15:55:24;8.70;99.90
18948;DHT22;9607;51.600;7.558;2023-03-14T15:57:52;8.90;99.90
18948;DHT22;9607;51.600;7.558;2023-03-14T16:00:20;9.10;99.90
18948;DHT22;9607;51.600;7.558;2023-03-14T16:02:48;9.30;99.90
18948;DHT22;9607;51.600;7.558;2023-03-14T16:05:15;9.10;99.90
18948;DHT22;9607;51.600;7.558;2023-03-14T16:07:43;8.70;99.90
18948;DHT22;9607;51.600;7.558;2023-03-14T16:10:11;8.40;99.90
18948;DHT22;9607;51.600;7.558;2023-03-14T16:12:39;8.00;99.90
18948;DHT22;9607;51.600;7.558;2023-03-14T16:15:09;7.70;99.90